sensor_id;sensor_type;location;lat;lon;timestamp;temperature;humidity
65034;DHT22;51601;51.356;12.458;2023-10-09T00:01:16;12.30;99.90
65034;DHT22;51601;51.356;12.458;2023-10-09T00:05:34;12.20;99.90
65034;DHT22;51601;51.356;12.458;2023-10-09T00:10:06;12.20;99.90
65034;DHT22;51601;51.356;12.458;2023-10-09T00:14:30;12.10;99.90
65034;DHT22;51601;51.356;12.458;2023-10-09T00:18:50;12.10;99.90
65034;DHT22;51601;51.356;12.458;2023-10-09T00:23:11;12.10;99.90
65034;DHT22;51601;51.356;12.458;2023-10-09T00:27:33;12.10;99.90
65034;DHT22;51601;51.356;12.458;2023-10-09T00:31:53;12.00;99.90
65034;DHT22;51601;51.356;12.458;2023-10-09T00:36:23;12.00;99.90
65034;DHT22;51601;51.356;12.458;2023-10-09T00:40:44;12.10;99.90
65034;DHT22;51601;51.356;12.458;2023-10-09T00:45:08;12.10;99.90
65034;DHT22;51601;51.356;12.458;2023-10-09T00:49:33;12.20;99.90
65034;DHT22;51601;51.356;12.458;2023-10-09T00:53:59;12.20;99.90
65034;DHT22;51601;51.356;12.458;2023-10-09T00:58:24;12.30;99.90
65034;DHT22;51601;51.356;12.458;2023-10-09T01:02:50;12.20;99.90
65034;DHT22;51601;51.356;12.458;2023-10-09T01:07:28;12.30;99.90
65034;DHT22;51601;51.356;12.458;2023-10-09T01:11:49;12.20;99.90
65034;DHT22;51601;51.356;12.458;2023-10-09T01:16:22;12.30;99.90
65034;DHT22;51601;51.356;12.458;2023-10-09T01:20:45;12.30;99.90
65034;DHT22;51601;51.356;12.458;2023-10-09T01:25:07;12.30;99.90
65034;DHT22;51601;51.356;12.458;2023-10-09T01:29:26;12.30;99.90
65034;DHT22;51601;51.356;12.458;2023-10-09T01:33:47;12.30;99.90
65034;DHT22;51601;51.356;12.458;2023-10-09T01:38:05;12.30;99.90
65034;DHT22;51601;51.356;12.458;2023-10-09T01:42:31;12.30;99.90
65034;DHT22;51601;51.356;12.458;2023-10-09T01:46:50;12.30;99.90
65034;DHT22;51601;51.356;12.458;2023-10-09T01:51:13;12.30;99.90
65034;DHT22;51601;51.356;12.458;2023-10-09T01:55:33;12.30;99.90
65034;DHT22;51601;51.356;12.458;2023-10-09T01:59:58;12.30;99.90
65034;DHT22;51601;51.356;12.458;2023-10-09T02:04:18;12.30;99.90
65034;DHT22;51601;51.356;12.458;2023-10-09T02:08:36;12.20;99.90
65034;DHT22;51601;51.356;12.458;2023-10-09T02:12:56;12.10;99.90
65034;DHT22;51601;51.356;12.458;2023-10-09T02:17:17;12.10;99.90
65034;DHT22;51601;51.356;12.458;2023-10-09T02:21:36;12.10;99.90
65034;DHT22;51601;51.356;12.458;2023-10-09T02:25:58;12.10;99.90
65034;DHT22;51601;51.356;12.458;2023-10-09T02:30:19;12.10;99.90
65034;DHT22;51601;51.356;12.458;2023-10-09T02:34:47;12.10;99.90
65034;DHT22;51601;51.356;12.458;2023-10-09T02:39:07;12.20;99.90
65034;DHT22;51601;51.356;12.458;2023-10-09T02:43:40;12.20;99.90
65034;DHT22;51601;51.356;12.458;2023-10-09T02:48:02;12.20;99.90
65034;DHT22;51601;51.356;12.458;2023-10-09T02:52:30;12.20;99.90
65034;DHT22;51601;51.356;12.458;2023-10-09T02:56:51;12.30;99.90
65034;DHT22;51601;51.356;12.458;2023-10-09T03:01:14;12.30;99.90
65034;DHT22;51601;51.356;12.458;2023-10-09T03:05:32;12.30;99.90
65034;DHT22;51601;51.356;12.458;2023-10-09T03:09:52;12.40;99.90
65034;DHT22;51601;51.356;12.458;2023-10-09T03:14:12;12.30;99.90
65034;DHT22;51601;51.356;12.458;2023-10-09T03:18:30;12.40;99.90
65034;DHT22;51601;51.356;12.458;2023-10-09T03:23:00;12.40;99.90
65034;DHT22;51601;51.356;12.458;2023-10-09T03:27:19;12.50;99.90
65034;DHT22;51601;51.356;12.458;2023-10-09T03:31:39;12.40;99.90
65034;DHT22;51601;51.356;12.458;2023-10-09T03:36:00;12.40;99.90
65034;DHT22;51601;51.356;12.458;2023-10-09T03:40:18;12.40;99.90
65034;DHT22;51601;51.356;12.458;2023-10-09T03:44:41;12.40;99.90
65034;DHT22;51601;51.356;12.458;2023-10-09T03:49:07;12.40;99.90
65034;DHT22;51601;51.356;12.458;2023-10-09T03:53:28;12.40;99.90
65034;DHT22;51601;51.356;12.458;2023-10-09T03:57:46;12.50;99.90
65034;DHT22;51601;51.356;12.458;2023-10-09T04:02:05;12.50;99.90
65034;DHT22;51601;51.356;12.458;2023-10-09T04:06:26;12.50;99.90
65034;DHT22;51601;51.356;12.458;2023-10-09T04:10:46;12.50;99.90
65034;DHT22;51601;51.356;12.458;2023-10-09T04:15:13;12.60;99.90
65034;DHT22;51601;51.356;12.458;2023-10-09T04:19:34;12.50;99.90
65034;DHT22;51601;51.356;12.458;2023-10-09T04:24:06;12.60;99.90
65034;DHT22;51601;51.356;12.458;2023-10-09T04:28:38;12.60;99.90
65034;DHT22;51601;51.356;12.458;2023-10-09T04:32:59;12.60;99.90
65034;DHT22;51601;51.356;12.458;2023-10-09T04:37:28;12.60;99.90
65034;DHT22;51601;51.356;12.458;2023-10-09T04:41:58;12.60;99.90
65034;DHT22;51601;51.356;12.458;2023-10-09T04:46:36;12.60;99.90
65034;DHT22;51601;51.356;12.458;2023-10-09T04:51:01;12.50;99.90
65034;DHT22;51601;51.356;12.458;2023-10-09T04:55:39;12.50;99.90
65034;DHT22;51601;51.356;12.458;2023-10-09T05:00:02;12.50;99.90
65034;DHT22;51601;51.356;12.458;2023-10-09T05:04:23;12.50;99.90
65034;DHT22;51601;51.356;12.458;2023-10-09T05:08:59;12.50;99.90
65034;DHT22;51601;51.356;12.458;2023-10-09T05:13:28;12.50;99.90
65034;DHT22;51601;51.356;12.458;2023-10-09T05:18:00;12.50;99.90
65034;DHT22;51601;51.356;12.458;2023-10-09T05:22:27;12.50;99.90
65034;DHT22;51601;51.356;12.458;2023-10-09T05:26:54;12.50;99.90
65034;DHT22;51601;51.356;12.458;2023-10-09T05:31:35;12.50;99.90
65034;DHT22;51601;51.356;12.458;2023-10-09T05:36:13;12.50;99.90
65034;DHT22;51601;51.356;12.458;2023-10-09T05:40:53;12.60;99.90
65034;DHT22;51601;51.356;12.458;2023-10-09T05:45:20;12.60;99.90
65034;DHT22;51601;51.356;12.458;2023-10-09T05:49:58;12.70;99.90
65034;DHT22;51601;51.356;12.458;2023-10-09T05:54:33;12.70;99.90
65034;DHT22;51601;51.356;12.458;2023-10-09T05:59:04;12.70;99.90
65034;DHT22;51601;51.356;12.458;2023-10-09T06:03:43;12.80;99.90
65034;DHT22;51601;51.356;12.458;2023-10-09T06:08:12;12.80;99.90
65034;DHT22;51601;51.356;12.458;2023-10-09T06:12:28;12.80;99.90
65034;DHT22;51601;51.356;12.458;2023-10-09T06:17:11;12.90;99.90
65034;DHT22;51601;51.356;12.458;2023-10-09T06:21:42;12.90;99.90
65034;DHT22;51601;51.356;12.458;2023-10-09T06:26:31;12.90;99.90
65034;DHT22;51601;51.356;12.458;2023-10-09T06:30:51;12.90;99.90
65034;DHT22;51601;51.356;12.458;2023-10-09T06:35:09;13.00;99.90
65034;DHT22;51601;51.356;12.458;2023-10-09T06:39:35;13.00;99.90
65034;DHT22;51601;51.356;12.458;2023-10-09T06:44:18;13.00;99.90
65034;DHT22;51601;51.356;12.458;2023-10-09T06:49:05;13.00;99.90
65034;DHT22;51601;51.356;12.458;2023-10-09T06:53:49;13.10;99.90
65034;DHT22;51601;51.356;12.458;2023-10-09T06:58:25;13.10;99.90
65034;DHT22;51601;51.356;12.458;2023-10-09T07:02:47;13.10;99.90
65034;DHT22;51601;51.356;12.458;2023-10-09T07:07:03;13.20;99.90
65034;DHT22;51601;51.356;12.458;2023-10-09T07:11:24;13.20;99.90
65034;DHT22;51601;51.356;12.458;2023-10-09T07:15:58;13.30;99.90
65034;DHT22;51601;51.356;12.458;2023-10-09T07:20:36;13.40;99.90
65034;DHT22;51601;51.356;12.458;2023-10-09T07:24:56;13.40;99.90
65034;DHT22;51601;51.356;12.458;2023-10-09T07:29:17;13.50;99.90
65034;DHT22;51601;51.356;12.458;2023-10-09T07:33:38;13.50;99.90
65034;DHT22;51601;51.356;12.458;2023-10-09T07:38:27;13.60;99.90
65034;DHT22;51601;51.356;12.458;2023-10-09T07:42:47;13.70;99.90
65034;DHT22;51601;51.356;12.458;2023-10-09T07:47:10;13.70;99.90
65034;DHT22;51601;51.356;12.458;2023-10-09T07:51:45;13.80;99.90
65034;DHT22;51601;51.356;12.458;2023-10-09T07:56:06;13.90;99.90
65034;DHT22;51601;51.356;12.458;2023-10-09T08:00:24;14.00;99.90
65034;DHT22;51601;51.356;12.458;2023-10-09T08:05:17;14.10;99.90
65034;DHT22;51601;51.356;12.458;2023-10-09T08:09:40;14.20;99.90
65034;DHT22;51601;51.356;12.458;2023-10-09T08:14:06;14.30;99.90
65034;DHT22;51601;51.356;12.458;2023-10-09T08:18:38;14.30;99.90
65034;DHT22;51601;51.356;12.458;2023-10-09T08:23:02;14.40;99.90
65034;DHT22;51601;51.356;12.458;2023-10-09T08:27:39;14.40;99.90
65034;DHT22;51601;51.356;12.458;2023-10-09T08:32:14;14.50;99.90
65034;DHT22;51601;51.356;12.458;2023-10-09T08:36:58;14.50;99.90
65034;DHT22;51601;51.356;12.458;2023-10-09T08:41:16;14.60;99.90
65034;DHT22;51601;51.356;12.458;2023-10-09T08:45:39;14.60;99.90
65034;DHT22;51601;51.356;12.458;2023-10-09T08:50:00;14.60;99.90
65034;DHT22;51601;51.356;12.458;2023-10-09T08:54:20;14.60;99.90
65034;DHT22;51601;51.356;12.458;2023-10-09T08:58:37;14.60;99.90
65034;DHT22;51601;51.356;12.458;2023-10-09T09:02:59;14.60;99.90
65034;DHT22;51601;51.356;12.458;2023-10-09T09:07:26;14.60;99.90
65034;DHT22;51601;51.356;12.458;2023-10-09T09:11:47;14.60;99.90
65034;DHT22;51601;51.356;12.458;2023-10-09T09:16:16;14.70;99.90
65034;DHT22;51601;51.356;12.458;2023-10-09T09:20:36;14.70;99.90
65034;DHT22;51601;51.356;12.458;2023-10-09T09:24:59;14.70;99.90
65034;DHT22;51601;51.356;12.458;2023-10-09T09:29:39;14.70;99.90
65034;DHT22;51601;51.356;12.458;2023-10-09T09:34:00;14.70;99.90
65034;DHT22;51601;51.356;12.458;2023-10-09T09:38:21;14.70;99.90
65034;DHT22;51601;51.356;12.458;2023-10-09T09:42:43;14.70;99.90
65034;DHT22;51601;51.356;12.458;2023-10-09T09:47:04;14.80;99.90
65034;DHT22;51601;51.356;12.458;2023-10-09T09:51:25;14.90;99.90
65034;DHT22;51601;51.356;12.458;2023-10-09T09:55:50;15.00;99.90
65034;DHT22;51601;51.356;12.458;2023-10-09T10:00:20;15.10;99.90
65034;DHT22;51601;51.356;12.458;2023-10-09T10:04:47;15.30;99.90
65034;DHT22;51601;51.356;12.458;2023-10-09T10:09:08;15.40;99.90
65034;DHT22;51601;51.356;12.458;2023-10-09T10:13:54;15.60;99.90
65034;DHT22;51601;51.356;12.458;2023-10-09T10:18:16;15.90;99.90
65034;DHT22;51601;51.356;12.458;2023-10-09T10:22:35;16.10;99.90
65034;DHT22;51601;51.356;12.458;2023-10-09T10:27:24;16.40;99.90
65034;DHT22;51601;51.356;12.458;2023-10-09T10:31:56;16.40;99.90
65034;DHT22;51601;51.356;12.458;2023-10-09T10:36:22;16.40;99.90
65034;DHT22;51601;51.356;12.458;2023-10-09T10:40:43;16.50;99.90
65034;DHT22;51601;51.356;12.458;2023-10-09T10:45:05;16.40;99.90
65034;DHT22;51601;51.356;12.458;2023-10-09T10:49:44;16.30;99.90
65034;DHT22;51601;51.356;12.458;2023-10-09T10:54:07;16.10;99.90
65034;DHT22;51601;51.356;12.458;2023-10-09T10:58:52;16.00;99.90
65034;DHT22;51601;51.356;12.458;2023-10-09T11:03:27;15.90;99.90
65034;DHT22;51601;51.356;12.458;2023-10-09T11:07:57;15.80;99.90
65034;DHT22;51601;51.356;12.458;2023-10-09T11:12:17;15.80;99.90
65034;DHT22;51601;51.356;12.458;2023-10-09T11:16:40;15.70;99.90
65034;DHT22;51601;51.356;12.458;2023-10-09T11:21:07;15.70;99.90
65034;DHT22;51601;51.356;12.458;2023-10-09T11:25:42;15.70;99.90
65034;DHT22;51601;51.356;12.458;2023-10-09T11:30:14;15.70;99.90
65034;DHT22;51601;51.356;12.458;2023-10-09T11:34:38;15.70;99.90
65034;DHT22;51601;51.356;12.458;2023-10-09T11:39:02;15.60;99.90
65034;DHT22;51601;51.356;12.458;2023-10-09T11:43:49;15.60;99.90
65034;DHT22;51601;51.356;12.458;2023-10-09T11:48:20;15.60;99.90
65034;DHT22;51601;51.356;12.458;2023-10-09T11:52:56;15.50;99.90
65034;DHT22;51601;51.356;12.458;2023-10-09T11:57:26;15.50;99.90
65034;DHT22;51601;51.356;12.458;2023-10-09T12:01:49;15.40;99.90
65034;DHT22;51601;51.356;12.458;2023-10-09T12:06:12;15.40;99.90
65034;DHT22;51601;51.356;12.458;2023-10-09T12:10:34;15.30;99.90
65034;DHT22;51601;51.356;12.458;2023-10-09T12:14:56;15.20;99.90
65034;DHT22;51601;51.356;12.458;2023-10-09T12:19:14;15.20;99.90
65034;DHT22;51601;51.356;12.458;2023-10-09T12:23:33;15.20;99.90
65034;DHT22;51601;51.356;12.458;2023-10-09T12:27:53;15.20;99.90
65034;DHT22;51601;51.356;12.458;2023-10-09T12:32:14;15.30;99.90
65034;DHT22;51601;51.356;12.458;2023-10-09T12:36:35;15.30;99.90
65034;DHT22;51601;51.356;12.458;2023-10-09T12:41:01;15.30;99.90
65034;DHT22;51601;51.356;12.458;2023-10-09T12:45:24;15.30;99.90
65034;DHT22;51601;51.356;12.458;2023-10-09T12:49:45;15.30;99.90
65034;DHT22;51601;51.356;12.458;2023-10-09T12:54:03;15.30;99.90
65034;DHT22;51601;51.356;12.458;2023-10-09T12:58:22;15.30;99.90
65034;DHT22;51601;51.356;12.458;2023-10-09T13:02:42;15.30;99.90
65034;DHT22;51601;51.356;12.458;2023-10-09T13:07:00;15.30;99.90
65034;DHT22;51601;51.356;12.458;2023-10-09T13:11:21;15.30;99.90
65034;DHT22;51601;51.356;12.458;2023-10-09T13:15:44;15.20;99.90
65034;DHT22;51601;51.356;12.458;2023-10-09T13:20:05;15.30;99.90
65034;DHT22;51601;51.356;12.458;2023-10-09T13:24:31;15.30;99.90
65034;DHT22;51601;51.356;12.458;2023-10-09T13:28:50;15.30;99.90
65034;DHT22;51601;51.356;12.458;2023-10-09T13:33:13;15.30;99.90
65034;DHT22;51601;51.356;12.458;2023-10-09T13:37:36;15.40;99.90
65034;DHT22;51601;51.356;12.458;2023-10-09T13:41:56;15.40;99.90
65034;DHT22;51601;51.356;12.458;2023-10-09T13:46:16;15.40;99.90
65034;DHT22;51601;51.356;12.458;2023-10-09T13:50:36;15.30;99.90
65034;DHT22;51601;51.356;12.458;2023-10-09T13:54:59;15.30;99.90
65034;DHT22;51601;51.356;12.458;2023-10-09T13:59:33;15.30;99.90
65034;DHT22;51601;51.356;12.458;2023-10-09T14:03:57;15.30;99.90
65034;DHT22;51601;51.356;12.458;2023-10-09T14:08:15;15.30;99.90
65034;DHT22;51601;51.356;12.458;2023-10-09T14:12:32;15.30;99.90
65034;DHT22;51601;51.356;12.458;2023-10-09T14:16:50;15.20;99.90
65034;DHT22;51601;51.356;12.458;2023-10-09T14:21:14;15.30;99.90
65034;DHT22;51601;51.356;12.458;2023-10-09T14:25:37;15.30;99.90
65034;DHT22;51601;51.356;12.458;2023-10-09T14:30:00;15.20;99.90
65034;DHT22;51601;51.356;12.458;2023-10-09T14:34:30;15.20;99.90
65034;DHT22;51601;51.356;12.458;2023-10-09T14:38:51;15.20;99.90
65034;DHT22;51601;51.356;12.458;2023-10-09T14:43:14;15.20;99.90
65034;DHT22;51601;51.356;12.458;2023-10-09T14:47:43;15.20;99.90
65034;DHT22;51601;51.356;12.458;2023-10-09T14:52:07;15.20;99.90
65034;DHT22;51601;51.356;12.458;2023-10-09T14:56:25;15.20;99.90
65034;DHT22;51601;51.356;12.458;2023-10-09T15:00:48;15.20;99.90
65034;DHT22;51601;51.356;12.458;2023-10-09T15:05:11;15.20;99.90
65034;DHT22;51601;51.356;12.458;2023-10-09T15:09:31;15.20;99.90
65034;DHT22;51601;51.356;12.458;2023-10-09T15:13:50;15.20;99.90
65034;DHT22;51601;51.356;12.458;2023-10-09T15:18:09;15.20;99.90
65034;DHT22;51601;51.356;12.458;2023-10-09T15:22:29;15.20;99.90
65034;DHT22;51601;51.356;12.458;2023-10-09T15:26:53;15.20;99.90
65034;DHT22;51601;51.356;12.458;2023-10-09T15:31:14;15.20;99.90
65034;DHT22;51601;51.356;12.458;2023-10-09T15:35:34;15.20;99.90
65034;DHT22;51601;51.356;12.458;2023-10-09T15:39:59;15.30;99.90
65034;DHT22;51601;51.356;12.458;2023-10-09T15:44:21;15.20;99.90
65034;DHT22;51601;51.356;12.458;2023-10-09T15:48:46;15.30;99.90
65034;DHT22;51601;51.356;12.458;2023-10-09T15:53:10;15.30;99.90
65034;DHT22;51601;51.356;12.458;2023-10-09T15:57:30;15.20;99.90
65034;DHT22;51601;51.356;12.458;2023-10-09T16:01:48;15.30;99.90
65034;DHT22;51601;51.356;12.458;2023-10-09T16:06:10;15.30;99.90
65034;DHT22;51601;51.356;12.458;2023-10-09T16:10:29;15.30;99.90
65034;DHT22;51601;51.356;12.458;2023-10-09T16:14:48;15.30;99.90
65034;DHT22;51601;51.356;12.458;2023-10-09T16:19:07;15.30;99.90
65034;DHT22;51601;51.356;12.458;2023-10-09T16:23:25;15.30;99.90
65034;DHT22;51601;51.356;12.458;2023-10-09T16:27:49;15.30;99.90
65034;DHT22;51601;51.356;12.458;2023-10-09T16:32:07;15.30;99.90
65034;DHT22;51601;51.356;12.458;2023-10-09T16:36:31;15.30;99.90
65034;DHT22;51601;51.356;12.458;2023-10-09T16:40:53;15.30;99.90
65034;DHT22;51601;51.356;12.458;2023-10-09T16:45:15;15.30;99.90
65034;DHT22;51601;51.356;12.458;2023-10-09T16:49:36;15.30;99.90
65034;DHT22;51601;51.356;12.458;2023-10-09T16:53:55;15.30;99.90
65034;DHT22;51601;51.356;12.458;2023-10-09T16:58:20;15.30;99.90
65034;DHT22;51601;51.356;12.458;2023-10-09T17:02:39;15.30;99.90
65034;DHT22;51601;51.356;12.458;2023-10-09T17:07:02;15.30;99.90
65034;DHT22;51601;51.356;12.458;2023-10-09T17:11:23;15.30;99.90
65034;DHT22;51601;51.356;12.458;2023-10-09T17:15:44;15.30;99.90
65034;DHT22;51601;51.356;12.458;2023-10-09T17:20:04;15.40;99.90
65034;DHT22;51601;51.356;12.458;2023-10-09T17:24:26;15.40;99.90
65034;DHT22;51601;51.356;12.458;2023-10-09T17:28:45;15.40;99.90
65034;DHT22;51601;51.356;12.458;2023-10-09T17:33:03;15.40;99.90
65034;DHT22;51601;51.356;12.458;2023-10-09T17:37:22;15.40;99.90
65034;DHT22;51601;51.356;12.458;2023-10-09T17:41:42;15.40;99.90
65034;DHT22;51601;51.356;12.458;2023-10-09T17:46:01;15.40;99.90
65034;DHT22;51601;51.356;12.458;2023-10-09T17:50:24;15.40;99.90
65034;DHT22;51601;51.356;12.458;2023-10-09T17:54:43;15.40;99.90
65034;DHT22;51601;51.356;12.458;2023-10-09T17:59:03;15.40;99.90
65034;DHT22;51601;51.356;12.458;2023-10-09T18:03:21;15.40;99.90
65034;DHT22;51601;51.356;12.458;2023-10-09T18:07:45;15.50;99.90
65034;DHT22;51601;51.356;12.458;2023-10-09T18:12:08;15.50;99.90
65034;DHT22;51601;51.356;12.458;2023-10-09T18:16:31;15.50;99.90
65034;DHT22;51601;51.356;12.458;2023-10-09T18:20:49;15.50;99.90
65034;DHT22;51601;51.356;12.458;2023-10-09T18:25:07;15.50;99.90
65034;DHT22;51601;51.356;12.458;2023-10-09T18:29:26;15.50;99.90
65034;DHT22;51601;51.356;12.458;2023-10-09T18:33:46;15.60;99.90
65034;DHT22;51601;51.356;12.458;2023-10-09T18:38:11;15.60;99.90
65034;DHT22;51601;51.356;12.458;2023-10-09T18:42:33;15.60;99.90
65034;DHT22;51601;51.356;12.458;2023-10-09T18:46:54;15.60;99.90
65034;DHT22;51601;51.356;12.458;2023-10-09T18:51:14;15.60;99.90
65034;DHT22;51601;51.356;12.458;2023-10-09T18:55:37;15.60;99.90
65034;DHT22;51601;51.356;12.458;2023-10-09T18:59:56;15.60;99.90
65034;DHT22;51601;51.356;12.458;2023-10-09T19:04:15;15.60;99.90
65034;DHT22;51601;51.356;12.458;2023-10-09T19:08:35;15.60;99.90
65034;DHT22;51601;51.356;12.458;2023-10-09T19:12:53;15.60;99.90
65034;DHT22;51601;51.356;12.458;2023-10-09T19:17:17;15.60;99.90
65034;DHT22;51601;51.356;12.458;2023-10-09T19:21:42;15.60;99.90
65034;DHT22;51601;51.356;12.458;2023-10-09T19:26:06;15.60;99.90
65034;DHT22;51601;51.356;12.458;2023-10-09T19:30:27;15.60;99.90
65034;DHT22;51601;51.356;12.458;2023-10-09T19:34:49;15.70;99.90
65034;DHT22;51601;51.356;12.458;2023-10-09T19:39:16;15.70;99.90
65034;DHT22;51601;51.356;12.458;2023-10-09T19:43:54;15.70;99.90
65034;DHT22;51601;51.356;12.458;2023-10-09T19:48:13;15.70;99.90
65034;DHT22;51601;51.356;12.458;2023-10-09T19:52:31;15.80;99.90
65034;DHT22;51601;51.356;12.458;2023-10-09T19:56:51;15.70;99.90
65034;DHT22;51601;51.356;12.458;2023-10-09T20:01:12;15.70;99.90
65034;DHT22;51601;51.356;12.458;2023-10-09T20:05:31;15.70;99.90
65034;DHT22;51601;51.356;12.458;2023-10-09T20:09:49;15.70;99.90
65034;DHT22;51601;51.356;12.458;2023-10-09T20:14:09;15.70;99.90
65034;DHT22;51601;51.356;12.458;2023-10-09T20:18:25;15.80;99.90
65034;DHT22;51601;51.356;12.458;2023-10-09T20:22:43;15.70;99.90
65034;DHT22;51601;51.356;12.458;2023-10-09T20:27:07;15.80;99.90
65034;DHT22;51601;51.356;12.458;2023-10-09T20:31:27;15.80;99.90
65034;DHT22;51601;51.356;12.458;2023-10-09T20:35:44;15.80;99.90
65034;DHT22;51601;51.356;12.458;2023-10-09T20:40:02;15.80;99.90
65034;DHT22;51601;51.356;12.458;2023-10-09T20:44:20;15.80;99.90
65034;DHT22;51601;51.356;12.458;2023-10-09T20:48:40;15.80;99.90
65034;DHT22;51601;51.356;12.458;2023-10-09T20:53:02;15.80;99.90
65034;DHT22;51601;51.356;12.458;2023-10-09T20:57:20;15.80;99.90
65034;DHT22;51601;51.356;12.458;2023-10-09T21:01:38;15.80;99.90
65034;DHT22;51601;51.356;12.458;2023-10-09T21:06:02;15.80;99.90
65034;DHT22;51601;51.356;12.458;2023-10-09T21:10:43;15.80;99.90
65034;DHT22;51601;51.356;12.458;2023-10-09T21:15:04;15.80;99.90
65034;DHT22;51601;51.356;12.458;2023-10-09T21:19:27;15.80;99.90
65034;DHT22;51601;51.356;12.458;2023-10-09T21:23:47;15.80;99.90
65034;DHT22;51601;51.356;12.458;2023-10-09T21:28:06;15.90;99.90
65034;DHT22;51601;51.356;12.458;2023-10-09T21:32:25;15.80;99.90
65034;DHT22;51601;51.356;12.458;2023-10-09T21:36:43;15.90;99.90
65034;DHT22;51601;51.356;12.458;2023-10-09T21:41:09;15.90;99.90
65034;DHT22;51601;51.356;12.458;2023-10-09T21:45:36;15.90;99.90
65034;DHT22;51601;51.356;12.458;2023-10-09T21:49:55;15.90;99.90
65034;DHT22;51601;51.356;12.458;2023-10-09T21:54:13;15.90;99.90
65034;DHT22;51601;51.356;12.458;2023-10-09T21:58:41;15.90;99.90
65034;DHT22;51601;51.356;12.458;2023-10-09T22:03:00;15.90;99.90
65034;DHT22;51601;51.356;12.458;2023-10-09T22:07:23;15.90;99.90
65034;DHT22;51601;51.356;12.458;2023-10-09T22:11:47;15.90;99.90
65034;DHT22;51601;51.356;12.458;2023-10-09T22:16:07;15.90;99.90
65034;DHT22;51601;51.356;12.458;2023-10-09T22:20:31;15.90;99.90
65034;DHT22;51601;51.356;12.458;2023-10-09T22:24:51;15.90;99.90
65034;DHT22;51601;51.356;12.458;2023-10-09T22:29:08;15.90;99.90
65034;DHT22;51601;51.356;12.458;2023-10-09T22:33:31;15.90;99.90
65034;DHT22;51601;51.356;12.458;2023-10-09T22:38:03;15.90;99.90
65034;DHT22;51601;51.356;12.458;2023-10-09T22:42:27;15.80;99.90
65034;DHT22;51601;51.356;12.458;2023-10-09T22:46:48;15.80;99.90
65034;DHT22;51601;51.356;12.458;2023-10-09T22:51:11;15.80;99.90
65034;DHT22;51601;51.356;12.458;2023-10-09T22:55:30;15.80;99.90
65034;DHT22;51601;51.356;12.458;2023-10-09T22:59:48;15.80;99.90
65034;DHT22;51601;51.356;12.458;2023-10-09T23:04:07;15.80;99.90
65034;DHT22;51601;51.356;12.458;2023-10-09T23:08:32;15.80;99.90
65034;DHT22;51601;51.356;12.458;2023-10-09T23:12:52;15.70;99.90
65034;DHT22;51601;51.356;12.458;2023-10-09T23:17:19;15.70;99.90
65034;DHT22;51601;51.356;12.458;2023-10-09T23:22:02;15.60;99.90
65034;DHT22;51601;51.356;12.458;2023-10-09T23:26:30;15.50;99.90
65034;DHT22;51601;51.356;12.458;2023-10-09T23:30:50;15.50;99.90
65034;DHT22;51601;51.356;12.458;2023-10-09T23:35:08;15.50;99.90
65034;DHT22;51601;51.356;12.458;2023-10-09T23:39:29;15.50;99.90
65034;DHT22;51601;51.356;12.458;2023-10-09T23:44:10;15.50;99.90
65034;DHT22;51601;51.356;12.458;2023-10-09T23:48:37;15.60;99.90
65034;DHT22;51601;51.356;12.458;2023-10-09T23:52:54;15.60;99.90
65034;DHT22;51601;51.356;12.458;2023-10-09T23:57:12;15.60;99.90
